sensor_id;sensor_type;location;lat;lon;timestamp;pressure;altitude;pressure_sealevel;temperature;humidity
12195;BME280;27023;42.680;23.132;2022-10-22T00:00:33;92921.09;;;7.89;100.00
12195;BME280;27023;42.680;23.132;2022-10-22T00:03:00;92920.47;;;7.92;100.00
12195;BME280;27023;42.680;23.132;2022-10-22T00:05:28;92926.31;;;7.89;100.00
12195;BME280;27023;42.680;23.132;2022-10-22T00:07:55;92926.78;;;7.83;100.00
12195;BME280;27023;42.680;23.132;2022-10-22T00:10:21;92926.78;;;7.83;100.00
12195;BME280;27023;42.680;23.132;2022-10-22T00:12:48;92928.47;;;7.70;100.00
12195;BME280;27023;42.680;23.132;2022-10-22T00:15:15;92932.00;;;7.65;100.00
12195;BME280;27023;42.680;23.132;2022-10-22T00:17:41;92927.72;;;7.87;100.00
12195;BME280;27023;42.680;23.132;2022-10-22T00:20:09;92922.78;;;7.94;100.00
12195;BME280;27023;42.680;23.132;2022-10-22T00:22:37;92913.97;;;7.64;100.00
12195;BME280;27023;42.680;23.132;2022-10-22T00:25:04;92911.50;;;7.76;100.00
12195;BME280;27023;42.680;23.132;2022-10-22T00:27:31;92896.06;;;8.01;100.00
12195;BME280;27023;42.680;23.132;2022-10-22T00:29:57;92905.19;;;7.94;100.00
12195;BME280;27023;42.680;23.132;2022-10-22T00:32:24;92918.75;;;7.88;100.00
12195;BME280;27023;42.680;23.132;2022-10-22T00:34:51;92918.41;;;7.46;100.00
12195;BME280;27023;42.680;23.132;2022-10-22T00:37:17;92896.50;;;7.51;100.00
12195;BME280;27023;42.680;23.132;2022-10-22T00:39:45;92908.09;;;7.67;100.00
12195;BME280;27023;42.680;23.132;2022-10-22T00:42:16;92913.34;;;7.93;100.00
12195;BME280;27023;42.680;23.132;2022-10-22T00:45:23;92919.69;;;7.83;100.00
12195;BME280;27023;42.680;23.132;2022-10-22T00:47:54;92910.28;;;8.00;100.00
12195;BME280;27023;42.680;23.132;2022-10-22T00:50:26;92908.59;;;8.21;100.00
12195;BME280;27023;42.680;23.132;2022-10-22T00:52:54;92916.94;;;8.40;100.00
12195;BME280;27023;42.680;23.132;2022-10-22T00:55:25;92909.53;;;8.34;100.00
12195;BME280;27023;42.680;23.132;2022-10-22T00:57:53;92906.91;;;8.34;100.00
12195;BME280;27023;42.680;23.132;2022-10-22T01:00:22;92901.00;;;8.28;100.00
12195;BME280;27023;42.680;23.132;2022-10-22T01:02:49;92896.09;;;8.18;100.00
12195;BME280;27023;42.680;23.132;2022-10-22T01:05:17;92892.97;;;8.16;100.00
12195;BME280;27023;42.680;23.132;2022-10-22T01:07:45;92874.75;;;8.28;100.00
12195;BME280;27023;42.680;23.132;2022-10-22T01:10:23;92878.00;;;8.08;100.00
12195;BME280;27023;42.680;23.132;2022-10-22T01:13:04;92885.88;;;8.25;100.00
12195;BME280;27023;42.680;23.132;2022-10-22T01:15:37;92878.47;;;8.27;100.00
12195;BME280;27023;42.680;23.132;2022-10-22T01:18:07;92881.09;;;8.27;100.00
12195;BME280;27023;42.680;23.132;2022-10-22T01:20:48;92877.53;;;7.97;100.00
12195;BME280;27023;42.680;23.132;2022-10-22T01:23:47;92868.88;;;7.96;100.00
12195;BME280;27023;42.680;23.132;2022-10-22T01:26:23;92865.03;;;7.68;100.00
12195;BME280;27023;42.680;23.132;2022-10-22T01:28:59;92862.25;;;7.90;100.00
12195;BME280;27023;42.680;23.132;2022-10-22T01:31:30;92868.09;;;7.53;100.00
12195;BME280;27023;42.680;23.132;2022-10-22T01:33:58;92854.69;;;7.80;100.00
12195;BME280;27023;42.680;23.132;2022-10-22T01:36:27;92851.75;;;7.82;100.00
12195;BME280;27023;42.680;23.132;2022-10-22T01:38:55;92850.97;;;7.81;100.00
12195;BME280;27023;42.680;23.132;2022-10-22T01:41:22;92842.03;;;7.91;100.00
12195;BME280;27023;42.680;23.132;2022-10-22T01:43:49;92838.16;;;7.97;100.00
12195;BME280;27023;42.680;23.132;2022-10-22T01:46:17;92839.19;;;7.36;100.00
12195;BME280;27023;42.680;23.132;2022-10-22T01:48:56;92856.53;;;7.71;100.00
12195;BME280;27023;42.680;23.132;2022-10-22T01:51:41;92857.78;;;7.82;100.00
12195;BME280;27023;42.680;23.132;2022-10-22T01:54:20;92859.00;;;7.93;100.00
12195;BME280;27023;42.680;23.132;2022-10-22T01:56:57;92860.56;;;7.69;100.00
12195;BME280;27023;42.680;23.132;2022-10-22T01:59:34;92868.69;;;7.41;100.00
12195;BME280;27023;42.680;23.132;2022-10-22T02:02:12;92857.38;;;7.23;100.00
12195;BME280;27023;42.680;23.132;2022-10-22T02:04:48;92858.06;;;7.55;100.00
12195;BME280;27023;42.680;23.132;2022-10-22T02:07:18;92859.41;;;7.35;100.00
12195;BME280;27023;42.680;23.132;2022-10-22T02:09:47;92847.81;;;7.19;100.00
12195;BME280;27023;42.680;23.132;2022-10-22T02:12:16;92840.31;;;6.78;100.00
12195;BME280;27023;42.680;23.132;2022-10-22T02:14:45;92838.47;;;6.87;100.00
12195;BME280;27023;42.680;23.132;2022-10-22T02:17:18;92835.53;;;6.80;100.00
12195;BME280;27023;42.680;23.132;2022-10-22T02:19:51;92831.22;;;6.84;100.00
12195;BME280;27023;42.680;23.132;2022-10-22T02:22:19;92849.75;;;6.56;100.00
12195;BME280;27023;42.680;23.132;2022-10-22T02:24:46;92859.78;;;6.94;100.00
12195;BME280;27023;42.680;23.132;2022-10-22T02:27:19;92861.78;;;6.57;100.00
12195;BME280;27023;42.680;23.132;2022-10-22T02:29:53;92862.66;;;6.75;100.00
12195;BME280;27023;42.680;23.132;2022-10-22T02:32:29;92871.19;;;6.58;100.00
12195;BME280;27023;42.680;23.132;2022-10-22T02:34:58;92866.56;;;6.64;100.00
12195;BME280;27023;42.680;23.132;2022-10-22T02:37:26;92865.09;;;6.72;100.00
12195;BME280;27023;42.680;23.132;2022-10-22T02:39:54;92857.91;;;6.86;100.00
12195;BME280;27023;42.680;23.132;2022-10-22T02:42:22;92858.69;;;6.86;100.00
12195;BME280;27023;42.680;23.132;2022-10-22T02:44:49;92860.72;;;6.98;100.00
12195;BME280;27023;42.680;23.132;2022-10-22T02:47:16;92868.06;;;6.79;100.00
12195;BME280;27023;42.680;23.132;2022-10-22T02:49:44;92853.66;;;6.67;100.00
12195;BME280;27023;42.680;23.132;2022-10-22T02:52:11;92843.72;;;6.87;100.00
12195;BME280;27023;42.680;23.132;2022-10-22T02:54:37;92844.97;;;6.89;100.00
12195;BME280;27023;42.680;23.132;2022-10-22T02:57:04;92853.31;;;7.00;100.00
12195;BME280;27023;42.680;23.132;2022-10-22T02:59:31;92844.53;;;7.05;100.00
12195;BME280;27023;42.680;23.132;2022-10-22T03:01:58;92860.25;;;6.96;100.00
12195;BME280;27023;42.680;23.132;2022-10-22T03:04:25;92863.47;;;6.93;100.00
12195;BME280;27023;42.680;23.132;2022-10-22T03:06:53;92850.03;;;6.86;100.00
12195;BME280;27023;42.680;23.132;2022-10-22T03:09:19;92846.88;;;7.06;100.00
12195;BME280;27023;42.680;23.132;2022-10-22T03:11:46;92842.88;;;7.17;100.00
12195;BME280;27023;42.680;23.132;2022-10-22T03:14:13;92846.91;;;7.23;100.00
12195;BME280;27023;42.680;23.132;2022-10-22T03:16:39;92849.81;;;7.22;100.00
12195;BME280;27023;42.680;23.132;2022-10-22T03:19:06;92849.19;;;7.08;100.00
12195;BME280;27023;42.680;23.132;2022-10-22T03:21:35;92841.19;;;7.21;100.00
12195;BME280;27023;42.680;23.132;2022-10-22T03:24:08;92845.38;;;7.40;100.00
12195;BME280;27023;42.680;23.132;2022-10-22T03:26:37;92830.91;;;7.59;100.00
12195;BME280;27023;42.680;23.132;2022-10-22T03:29:05;92826.91;;;7.45;100.00
12195;BME280;27023;42.680;23.132;2022-10-22T03:31:31;92837.56;;;7.57;100.00
12195;BME280;27023;42.680;23.132;2022-10-22T03:33:58;92819.16;;;7.40;100.00
12195;BME280;27023;42.680;23.132;2022-10-22T03:36:25;92800.97;;;7.52;100.00
12195;BME280;27023;42.680;23.132;2022-10-22T03:38:51;92796.50;;;7.44;100.00
12195;BME280;27023;42.680;23.132;2022-10-22T03:41:20;92805.00;;;7.49;100.00
12195;BME280;27023;42.680;23.132;2022-10-22T03:43:46;92815.63;;;7.79;100.00
12195;BME280;27023;42.680;23.132;2022-10-22T03:46:17;92824.88;;;8.02;100.00
12195;BME280;27023;42.680;23.132;2022-10-22T03:48:44;92843.56;;;7.83;100.00
12195;BME280;27023;42.680;23.132;2022-10-22T03:51:11;92842.59;;;8.14;100.00
12195;BME280;27023;42.680;23.132;2022-10-22T03:53:38;92838.28;;;8.09;100.00
12195;BME280;27023;42.680;23.132;2022-10-22T03:56:07;92842.00;;;8.17;100.00
12195;BME280;27023;42.680;23.132;2022-10-22T03:58:37;92813.41;;;8.15;100.00
12195;BME280;27023;42.680;23.132;2022-10-22T04:01:05;92821.91;;;8.38;100.00
12195;BME280;27023;42.680;23.132;2022-10-22T04:03:31;92819.13;;;8.35;100.00
12195;BME280;27023;42.680;23.132;2022-10-22T04:06:00;92821.28;;;8.41;100.00
12195;BME280;27023;42.680;23.132;2022-10-22T04:08:27;92827.16;;;8.38;100.00
12195;BME280;27023;42.680;23.132;2022-10-22T04:10:54;92826.56;;;8.24;100.00
12195;BME280;27023;42.680;23.132;2022-10-22T04:13:20;92831.50;;;8.17;100.00
12195;BME280;27023;42.680;23.132;2022-10-22T04:15:49;92833.97;;;8.05;100.00
12195;BME280;27023;42.680;23.132;2022-10-22T04:18:16;92820.53;;;8.15;100.00
12195;BME280;27023;42.680;23.132;2022-10-22T04:20:44;92819.31;;;8.04;100.00
12195;BME280;27023;42.680;23.132;2022-10-22T04:23:11;92820.38;;;8.20;100.00
12195;BME280;27023;42.680;23.132;2022-10-22T04:25:37;92822.84;;;8.25;100.00
12195;BME280;27023;42.680;23.132;2022-10-22T04:28:05;92822.56;;;8.18;100.00
12195;BME280;27023;42.680;23.132;2022-10-22T04:30:32;92823.13;;;8.32;100.00
12195;BME280;27023;42.680;23.132;2022-10-22T04:33:00;92830.88;;;8.37;100.00
12195;BME280;27023;42.680;23.132;2022-10-22T04:35:27;92839.06;;;8.10;100.00
12195;BME280;27023;42.680;23.132;2022-10-22T04:37:53;92841.72;;;7.92;100.00
12195;BME280;27023;42.680;23.132;2022-10-22T04:40:21;92835.25;;;7.81;100.00
12195;BME280;27023;42.680;23.132;2022-10-22T04:43:01;92840.94;;;7.49;100.00
12195;BME280;27023;42.680;23.132;2022-10-22T04:45:28;92845.06;;;7.32;100.00
12195;BME280;27023;42.680;23.132;2022-10-22T04:47:55;92834.25;;;7.25;100.00
12195;BME280;27023;42.680;23.132;2022-10-22T04:50:23;92835.69;;;7.49;100.00
12195;BME280;27023;42.680;23.132;2022-10-22T04:52:50;92832.63;;;7.55;100.00
12195;BME280;27023;42.680;23.132;2022-10-22T04:55:17;92833.69;;;7.63;100.00
12195;BME280;27023;42.680;23.132;2022-10-22T04:57:43;92841.72;;;7.58;100.00
12195;BME280;27023;42.680;23.132;2022-10-22T05:00:11;92847.50;;;7.20;100.00
12195;BME280;27023;42.680;23.132;2022-10-22T05:02:37;92853.09;;;7.36;100.00
12195;BME280;27023;42.680;23.132;2022-10-22T05:05:05;92851.38;;;7.31;100.00
12195;BME280;27023;42.680;23.132;2022-10-22T05:07:33;92859.25;;;7.31;100.00
12195;BME280;27023;42.680;23.132;2022-10-22T05:09:59;92866.94;;;7.19;100.00
12195;BME280;27023;42.680;23.132;2022-10-22T05:12:27;92868.53;;;7.38;100.00
12195;BME280;27023;42.680;23.132;2022-10-22T05:14:55;92865.66;;;7.65;100.00
12195;BME280;27023;42.680;23.132;2022-10-22T05:17:21;92859.78;;;7.94;100.00
12195;BME280;27023;42.680;23.132;2022-10-22T05:19:48;92867.94;;;8.10;100.00
12195;BME280;27023;42.680;23.132;2022-10-22T05:22:15;92861.47;;;7.47;100.00
12195;BME280;27023;42.680;23.132;2022-10-22T05:24:43;92862.09;;;7.78;100.00
12195;BME280;27023;42.680;23.132;2022-10-22T05:27:09;92861.78;;;7.54;100.00
12195;BME280;27023;42.680;23.132;2022-10-22T05:29:36;92864.81;;;7.39;100.00
12195;BME280;27023;42.680;23.132;2022-10-22T05:32:03;92863.78;;;7.65;100.00
12195;BME280;27023;42.680;23.132;2022-10-22T05:34:30;92875.53;;;7.59;100.00
12195;BME280;27023;42.680;23.132;2022-10-22T05:36:57;92858.22;;;7.58;100.00
12195;BME280;27023;42.680;23.132;2022-10-22T05:39:24;92857.94;;;7.77;100.00
12195;BME280;27023;42.680;23.132;2022-10-22T05:41:52;92862.94;;;7.30;100.00
12195;BME280;27023;42.680;23.132;2022-10-22T05:44:19;92855.63;;;7.76;100.00
12195;BME280;27023;42.680;23.132;2022-10-22T05:46:45;92853.13;;;7.96;100.00
12195;BME280;27023;42.680;23.132;2022-10-22T05:49:13;92859.94;;;7.97;100.00
12195;BME280;27023;42.680;23.132;2022-10-22T05:51:40;92863.78;;;8.26;100.00
12195;BME280;27023;42.680;23.132;2022-10-22T05:54:08;92870.44;;;7.80;100.00
12195;BME280;27023;42.680;23.132;2022-10-22T05:56:37;92867.97;;;7.58;100.00
12195;BME280;27023;42.680;23.132;2022-10-22T05:59:05;92870.13;;;7.90;100.00
12195;BME280;27023;42.680;23.132;2022-10-22T06:01:33;92876.13;;;8.08;100.00
12195;BME280;27023;42.680;23.132;2022-10-22T06:04:02;92871.81;;;8.29;100.00
12195;BME280;27023;42.680;23.132;2022-10-22T06:06:31;92863.63;;;8.48;100.00
12195;BME280;27023;42.680;23.132;2022-10-22T06:09:01;92860.94;;;8.66;100.00
12195;BME280;27023;42.680;23.132;2022-10-22T06:11:29;92872.16;;;8.83;100.00
12195;BME280;27023;42.680;23.132;2022-10-22T06:13:55;92872.94;;;8.84;100.00
12195;BME280;27023;42.680;23.132;2022-10-22T06:16:23;92881.22;;;8.48;100.00
12195;BME280;27023;42.680;23.132;2022-10-22T06:18:50;92875.28;;;8.77;100.00
12195;BME280;27023;42.680;23.132;2022-10-22T06:21:17;92874.28;;;8.90;100.00
12195;BME280;27023;42.680;23.132;2022-10-22T06:23:43;92875.84;;;9.00;100.00
12195;BME280;27023;42.680;23.132;2022-10-22T06:26:10;92880.06;;;8.75;100.00
12195;BME280;27023;42.680;23.132;2022-10-22T06:28:37;92884.50;;;9.00;100.00
12195;BME280;27023;42.680;23.132;2022-10-22T06:31:04;92887.91;;;9.01;100.00
12195;BME280;27023;42.680;23.132;2022-10-22T06:33:33;92898.09;;;9.02;100.00
12195;BME280;27023;42.680;23.132;2022-10-22T06:36:07;92897.81;;;8.95;100.00
12195;BME280;27023;42.680;23.132;2022-10-22T06:38:35;92880.28;;;9.08;100.00
12195;BME280;27023;42.680;23.132;2022-10-22T06:41:03;92885.50;;;9.16;100.00
12195;BME280;27023;42.680;23.132;2022-10-22T06:43:30;92886.13;;;9.13;100.00
12195;BME280;27023;42.680;23.132;2022-10-22T06:46:00;92886.03;;;9.01;100.00
12195;BME280;27023;42.680;23.132;2022-10-22T06:48:28;92885.84;;;9.06;100.00
12195;BME280;27023;42.680;23.132;2022-10-22T06:51:00;92887.75;;;8.88;100.00
12195;BME280;27023;42.680;23.132;2022-10-22T06:53:26;92884.41;;;9.17;100.00
12195;BME280;27023;42.680;23.132;2022-10-22T06:55:53;92896.38;;;9.36;100.00
12195;BME280;27023;42.680;23.132;2022-10-22T06:58:20;92900.91;;;9.56;100.00
12195;BME280;27023;42.680;23.132;2022-10-22T07:00:46;92911.56;;;9.68;100.00
12195;BME280;27023;42.680;23.132;2022-10-22T07:03:14;92912.16;;;9.65;100.00
12195;BME280;27023;42.680;23.132;2022-10-22T07:05:41;92899.91;;;9.10;100.00
12195;BME280;27023;42.680;23.132;2022-10-22T07:08:12;92895.97;;;9.25;100.00
12195;BME280;27023;42.680;23.132;2022-10-22T07:10:39;92891.03;;;9.53;100.00
12195;BME280;27023;42.680;23.132;2022-10-22T07:13:06;92887.03;;;9.47;100.00
12195;BME280;27023;42.680;23.132;2022-10-22T07:15:32;92891.22;;;9.77;100.00
12195;BME280;27023;42.680;23.132;2022-10-22T07:17:59;92895.31;;;9.87;100.00
12195;BME280;27023;42.680;23.132;2022-10-22T07:20:28;92890.75;;;9.96;100.00
12195;BME280;27023;42.680;23.132;2022-10-22T07:22:55;92890.31;;;9.94;100.00
12195;BME280;27023;42.680;23.132;2022-10-22T07:25:23;92890.06;;;9.87;100.00
12195;BME280;27023;42.680;23.132;2022-10-22T07:27:50;92889.59;;;10.06;100.00
12195;BME280;27023;42.680;23.132;2022-10-22T07:30:17;92895.44;;;9.91;100.00
12195;BME280;27023;42.680;23.132;2022-10-22T07:32:44;92896.66;;;9.93;100.00
12195;BME280;27023;42.680;23.132;2022-10-22T07:35:11;92893.00;;;9.85;100.00
12195;BME280;27023;42.680;23.132;2022-10-22T07:37:37;92902.66;;;9.81;100.00
12195;BME280;27023;42.680;23.132;2022-10-22T07:40:05;92889.22;;;9.95;100.00
12195;BME280;27023;42.680;23.132;2022-10-22T07:42:33;92883.56;;;10.26;100.00
12195;BME280;27023;42.680;23.132;2022-10-22T07:45:00;92874.03;;;10.34;100.00
12195;BME280;27023;42.680;23.132;2022-10-22T07:47:27;92868.44;;;10.56;100.00
12195;BME280;27023;42.680;23.132;2022-10-22T07:49:54;92868.25;;;10.73;100.00
12195;BME280;27023;42.680;23.132;2022-10-22T07:52:20;92866.41;;;10.86;100.00
12195;BME280;27023;42.680;23.132;2022-10-22T07:54:47;92867.81;;;10.71;100.00
12195;BME280;27023;42.680;23.132;2022-10-22T07:57:14;92861.09;;;10.62;100.00
12195;BME280;27023;42.680;23.132;2022-10-22T07:59:42;92871.22;;;10.72;100.00
12195;BME280;27023;42.680;23.132;2022-10-22T08:02:08;92872.97;;;10.80;100.00
12195;BME280;27023;42.680;23.132;2022-10-22T08:04:36;92886.41;;;10.99;100.00
12195;BME280;27023;42.680;23.132;2022-10-22T08:07:03;92887.97;;;11.12;100.00
12195;BME280;27023;42.680;23.132;2022-10-22T08:09:30;92877.56;;;11.28;100.00
12195;BME280;27023;42.680;23.132;2022-10-22T08:11:57;92880.09;;;11.37;100.00
12195;BME280;27023;42.680;23.132;2022-10-22T08:14:23;92874.81;;;11.37;100.00
12195;BME280;27023;42.680;23.132;2022-10-22T08:16:51;92859.09;;;11.16;100.00
12195;BME280;27023;42.680;23.132;2022-10-22T08:19:18;92862.47;;;11.41;100.00
12195;BME280;27023;42.680;23.132;2022-10-22T08:21:46;92848.16;;;11.54;100.00
12195;BME280;27023;42.680;23.132;2022-10-22T08:24:13;92853.88;;;11.68;100.00
12195;BME280;27023;42.680;23.132;2022-10-22T08:26:40;92856.72;;;11.75;100.00
12195;BME280;27023;42.680;23.132;2022-10-22T08:29:07;92868.38;;;11.87;100.00
12195;BME280;27023;42.680;23.132;2022-10-22T08:31:34;92865.97;;;11.94;100.00
12195;BME280;27023;42.680;23.132;2022-10-22T08:34:02;92866.84;;;11.98;100.00
12195;BME280;27023;42.680;23.132;2022-10-22T08:36:30;92868.19;;;11.92;100.00
12195;BME280;27023;42.680;23.132;2022-10-22T08:38:56;92861.13;;;11.96;100.00
12195;BME280;27023;42.680;23.132;2022-10-22T08:41:23;92866.56;;;12.15;100.00
12195;BME280;27023;42.680;23.132;2022-10-22T08:44:18;92856.81;;;12.31;100.00
12195;BME280;27023;42.680;23.132;2022-10-22T08:47:11;92867.13;;;12.36;100.00
12195;BME280;27023;42.680;23.132;2022-10-22T08:49:43;92879.97;;;12.50;100.00
12195;BME280;27023;42.680;23.132;2022-10-22T08:52:12;92874.88;;;12.29;100.00
12195;BME280;27023;42.680;23.132;2022-10-22T08:54:48;92864.25;;;12.41;100.00
12195;BME280;27023;42.680;23.132;2022-10-22T08:57:23;92865.44;;;12.72;100.00
12195;BME280;27023;42.680;23.132;2022-10-22T08:59:56;92860.75;;;12.81;100.00
12195;BME280;27023;42.680;23.132;2022-10-22T09:02:34;92867.94;;;12.96;100.00
12195;BME280;27023;42.680;23.132;2022-10-22T09:05:18;92865.13;;;13.05;100.00
12195;BME280;27023;42.680;23.132;2022-10-22T09:07:48;92863.97;;;13.18;100.00
12195;BME280;27023;42.680;23.132;2022-10-22T09:10:16;92857.97;;;13.21;100.00
12195;BME280;27023;42.680;23.132;2022-10-22T09:12:46;92855.13;;;12.98;100.00
12195;BME280;27023;42.680;23.132;2022-10-22T09:15:14;92857.34;;;13.12;100.00
12195;BME280;27023;42.680;23.132;2022-10-22T09:17:51;92858.31;;;13.35;100.00
12195;BME280;27023;42.680;23.132;2022-10-22T09:20:27;92856.19;;;13.41;100.00
12195;BME280;27023;42.680;23.132;2022-10-22T09:23:08;92852.94;;;13.32;100.00
12195;BME280;27023;42.680;23.132;2022-10-22T09:25:37;92853.19;;;13.58;100.00
12195;BME280;27023;42.680;23.132;2022-10-22T09:28:04;92849.50;;;13.63;100.00
12195;BME280;27023;42.680;23.132;2022-10-22T09:30:33;92857.84;;;14.00;100.00
12195;BME280;27023;42.680;23.132;2022-10-22T09:33:10;92854.94;;;14.24;100.00
12195;BME280;27023;42.680;23.132;2022-10-22T09:35:46;92847.84;;;14.48;100.00
12195;BME280;27023;42.680;23.132;2022-10-22T09:38:15;92856.91;;;14.47;100.00
12195;BME280;27023;42.680;23.132;2022-10-22T09:40:44;92841.25;;;14.61;100.00
12195;BME280;27023;42.680;23.132;2022-10-22T09:43:12;92833.25;;;14.80;99.02
12195;BME280;27023;42.680;23.132;2022-10-22T09:45:40;92825.31;;;15.03;94.50
12195;BME280;27023;42.680;23.132;2022-10-22T09:48:15;92830.22;;;15.24;97.31
12195;BME280;27023;42.680;23.132;2022-10-22T09:50:47;92842.56;;;15.39;92.21
12195;BME280;27023;42.680;23.132;2022-10-22T09:53:18;92840.19;;;15.57;87.57
12195;BME280;27023;42.680;23.132;2022-10-22T09:55:49;92835.06;;;15.68;85.75
12195;BME280;27023;42.680;23.132;2022-10-22T09:58:17;92837.31;;;15.92;83.67
12195;BME280;27023;42.680;23.132;2022-10-22T10:00:46;92839.25;;;15.95;83.29
12195;BME280;27023;42.680;23.132;2022-10-22T10:03:16;92831.22;;;15.92;86.80
12195;BME280;27023;42.680;23.132;2022-10-22T10:05:46;92821.84;;;16.01;87.06
12195;BME280;27023;42.680;23.132;2022-10-22T10:08:14;92823.88;;;16.11;85.14
12195;BME280;27023;42.680;23.132;2022-10-22T10:10:45;92829.38;;;15.96;78.54
12195;BME280;27023;42.680;23.132;2022-10-22T10:13:34;92820.09;;;16.12;83.07
12195;BME280;27023;42.680;23.132;2022-10-22T10:16:07;92826.00;;;15.99;82.95
12195;BME280;27023;42.680;23.132;2022-10-22T10:18:46;92818.28;;;15.90;86.40
12195;BME280;27023;42.680;23.132;2022-10-22T10:21:25;92814.03;;;16.15;79.81
12195;BME280;27023;42.680;23.132;2022-10-22T10:24:01;92812.66;;;16.29;80.09
12195;BME280;27023;42.680;23.132;2022-10-22T10:26:33;92815.34;;;16.29;78.78
12195;BME280;27023;42.680;23.132;2022-10-22T10:29:13;92822.69;;;16.39;77.42
12195;BME280;27023;42.680;23.132;2022-10-22T10:31:57;92819.78;;;16.51;78.60
12195;BME280;27023;42.680;23.132;2022-10-22T10:34:36;92815.25;;;16.55;75.60
12195;BME280;27023;42.680;23.132;2022-10-22T10:37:16;92811.41;;;16.49;78.03
12195;BME280;27023;42.680;23.132;2022-10-22T10:39:58;92807.94;;;16.45;79.60
12195;BME280;27023;42.680;23.132;2022-10-22T10:42:32;92792.56;;;16.65;79.70
12195;BME280;27023;42.680;23.132;2022-10-22T10:45:10;92789.94;;;16.68;75.82
12195;BME280;27023;42.680;23.132;2022-10-22T10:50:38;92782.53;;;16.88;74.54
12195;BME280;27023;42.680;23.132;2022-10-22T10:53:18;92769.34;;;17.06;72.03
12195;BME280;27023;42.680;23.132;2022-10-22T10:55:55;92771.91;;;16.92;67.43
12195;BME280;27023;42.680;23.132;2022-10-22T10:58:29;92754.91;;;17.07;62.15
12195;BME280;27023;42.680;23.132;2022-10-22T11:01:02;92752.06;;;17.33;61.80
12195;BME280;27023;42.680;23.132;2022-10-22T11:03:40;92734.66;;;17.54;62.92
12195;BME280;27023;42.680;23.132;2022-10-22T11:06:15;92738.56;;;17.67;63.76
12195;BME280;27023;42.680;23.132;2022-10-22T11:08:47;92734.31;;;17.59;60.67
12195;BME280;27023;42.680;23.132;2022-10-22T11:11:24;92726.28;;;17.52;60.15
12195;BME280;27023;42.680;23.132;2022-10-22T11:13:56;92724.44;;;17.63;59.87
12195;BME280;27023;42.680;23.132;2022-10-22T11:16:30;92717.53;;;17.55;57.95
12195;BME280;27023;42.680;23.132;2022-10-22T11:19:02;92721.00;;;17.62;56.89
12195;BME280;27023;42.680;23.132;2022-10-22T11:21:35;92716.88;;;17.68;59.39
12195;BME280;27023;42.680;23.132;2022-10-22T11:24:11;92725.56;;;17.62;58.82
12195;BME280;27023;42.680;23.132;2022-10-22T11:26:43;92713.81;;;17.66;56.19
12195;BME280;27023;42.680;23.132;2022-10-22T11:29:16;92706.31;;;17.86;58.62
12195;BME280;27023;42.680;23.132;2022-10-22T11:31:45;92704.03;;;17.88;58.61
12195;BME280;27023;42.680;23.132;2022-10-22T11:34:17;92698.75;;;18.02;57.07
12195;BME280;27023;42.680;23.132;2022-10-22T11:36:45;92699.50;;;18.03;56.47
12195;BME280;27023;42.680;23.132;2022-10-22T11:39:33;92692.69;;;18.16;56.09
12195;BME280;27023;42.680;23.132;2022-10-22T11:42:03;92689.25;;;18.23;55.14
12195;BME280;27023;42.680;23.132;2022-10-22T11:44:30;92686.59;;;18.23;56.96
12195;BME280;27023;42.680;23.132;2022-10-22T11:47:07;92689.28;;;18.30;57.18
12195;BME280;27023;42.680;23.132;2022-10-22T11:49:41;92683.16;;;18.26;55.25
12195;BME280;27023;42.680;23.132;2022-10-22T11:52:25;92672.50;;;18.33;55.20
12195;BME280;27023;42.680;23.132;2022-10-22T11:57:38;92671.03;;;18.60;51.61
12195;BME280;27023;42.680;23.132;2022-10-22T12:00:20;92683.19;;;18.47;54.12
12195;BME280;27023;42.680;23.132;2022-10-22T12:03:02;92678.69;;;18.65;53.28
12195;BME280;27023;42.680;23.132;2022-10-22T12:05:33;92691.56;;;18.28;58.83
12195;BME280;27023;42.680;23.132;2022-10-22T12:08:05;92688.53;;;18.58;52.11
12195;BME280;27023;42.680;23.132;2022-10-22T12:10:49;92674.13;;;18.77;51.10
12195;BME280;27023;42.680;23.132;2022-10-22T12:13:23;92666.09;;;18.77;53.08
12195;BME280;27023;42.680;23.132;2022-10-22T12:15:52;92667.25;;;18.68;60.04
12195;BME280;27023;42.680;23.132;2022-10-22T12:18:23;92668.00;;;18.72;54.48
12195;BME280;27023;42.680;23.132;2022-10-22T12:20:51;92667.94;;;18.44;60.10
12195;BME280;27023;42.680;23.132;2022-10-22T12:23:29;92655.03;;;18.67;57.64
12195;BME280;27023;42.680;23.132;2022-10-22T12:25:57;92651.59;;;18.78;52.28
12195;BME280;27023;42.680;23.132;2022-10-22T12:28:24;92653.06;;;18.25;62.65
12195;BME280;27023;42.680;23.132;2022-10-22T12:30:50;92660.53;;;17.70;63.25
12195;BME280;27023;42.680;23.132;2022-10-22T12:33:20;92645.03;;;18.15;55.22
12195;BME280;27023;42.680;23.132;2022-10-22T12:35:49;92641.25;;;18.37;57.19
12195;BME280;27023;42.680;23.132;2022-10-22T12:38:21;92635.91;;;18.23;60.85
12195;BME280;27023;42.680;23.132;2022-10-22T12:40:49;92645.81;;;18.33;62.14
12195;BME280;27023;42.680;23.132;2022-10-22T12:43:18;92642.75;;;18.17;58.22
12195;BME280;27023;42.680;23.132;2022-10-22T12:45:47;92645.84;;;18.40;55.25
12195;BME280;27023;42.680;23.132;2022-10-22T12:48:16;92646.59;;;18.51;57.46
12195;BME280;27023;42.680;23.132;2022-10-22T12:50:47;92643.53;;;18.35;60.25
12195;BME280;27023;42.680;23.132;2022-10-22T12:53:17;92641.25;;;18.40;56.08
12195;BME280;27023;42.680;23.132;2022-10-22T12:55:45;92632.09;;;18.45;59.12
12195;BME280;27023;42.680;23.132;2022-10-22T12:58:16;92641.25;;;18.48;61.85
12195;BME280;27023;42.680;23.132;2022-10-22T13:00:45;92630.59;;;18.58;58.08
12195;BME280;27023;42.680;23.132;2022-10-22T13:03:25;92622.97;;;18.46;58.20
12195;BME280;27023;42.680;23.132;2022-10-22T13:05:52;92618.38;;;18.18;56.28
12195;BME280;27023;42.680;23.132;2022-10-22T13:08:22;92626.75;;;18.20;61.34